createdAt,value
2023-04-16T02:30:42.039Z,50.875820
2023-04-16T02:31:42.031Z,50.875324
2023-04-16T02:32:42.045Z,50.875122
2023-04-16T02:33:41.994Z,50.874950
2023-04-16T02:34:41.983Z,50.875217
2023-04-16T02:35:41.984Z,50.875122
2023-04-16T02:36:41.989Z,50.875195
2023-04-16T02:37:41.950Z,50.875191
2023-04-16T02:38:41.952Z,50.875267
2023-04-16T02:39:41.932Z,50.875374
2023-04-16T02:40:41.922Z,50.875385
2023-04-16T02:41:41.929Z,50.875366
2023-04-16T02:42:41.905Z,50.875328
2023-04-16T02:43:41.891Z,50.875282
2023-04-16T02:44:41.894Z,50.875336
2023-04-16T02:45:41.891Z,50.875351
2023-04-16T02:46:41.881Z,50.875374
2023-04-16T02:47:41.882Z,50.875412
2023-04-16T02:48:41.848Z,50.875328
2023-04-16T02:49:41.832Z,50.875332
2023-04-16T02:50:41.828Z,50.875324
2023-04-16T02:51:41.838Z,50.875286
2023-04-16T02:52:41.812Z,50.875336
2023-04-16T02:53:41.795Z,50.875298
2023-04-16T02:54:41.793Z,50.875343
2023-04-16T02:55:41.807Z,50.875347
2023-04-16T02:56:41.786Z,50.875404
2023-04-16T02:57:41.757Z,50.875381
2023-04-16T02:58:41.748Z,50.875301
2023-04-16T02:59:41.736Z,50.875324
2023-04-16T03:00:41.725Z,50.875343
2023-04-16T03:01:41.756Z,50.875248
2023-04-16T03:02:41.801Z,50.875278
2023-04-16T03:03:41.715Z,50.875298
2023-04-16T03:04:41.844Z,50.875473
2023-04-16T03:05:41.676Z,50.875423
2023-04-16T03:06:41.668Z,50.875317
2023-04-16T03:07:41.673Z,50.875397
2023-04-16T03:08:41.660Z,50.875519
2023-04-16T03:09:41.645Z,50.875504
2023-04-16T03:10:41.630Z,50.875347
2023-04-16T03:11:41.621Z,50.875366
2023-04-16T03:12:41.634Z,50.875347
2023-04-16T03:13:41.596Z,50.875217
2023-04-16T03:14:41.601Z,50.875362
2023-04-16T03:15:41.620Z,50.875370
2023-04-16T03:16:41.588Z,50.875328
2023-04-16T03:17:41.640Z,50.875336
2023-04-16T03:18:41.550Z,50.875397
2023-04-16T03:19:41.552Z,50.875362
2023-04-16T03:20:41.533Z,50.875252
2023-04-16T03:21:41.522Z,50.875187
2023-04-16T03:22:41.527Z,50.875374
2023-04-16T03:23:41.509Z,50.875237
2023-04-16T03:24:41.498Z,50.875267
2023-04-16T03:25:41.489Z,50.875294
2023-04-16T03:26:41.472Z,50.875301
2023-04-16T03:27:41.472Z,50.875317
2023-04-16T03:28:41.455Z,50.875324
2023-04-16T03:29:41.455Z,50.875374
2023-04-16T03:30:41.441Z,50.875465
2023-04-16T03:31:41.537Z,50.875362
2023-04-16T03:32:41.580Z,50.875446
2023-04-16T03:33:41.417Z,50.875507
2023-04-16T03:34:41.411Z,50.875202
2023-04-16T03:35:41.387Z,50.875294
2023-04-16T03:36:41.374Z,50.875313
2023-04-16T03:37:41.382Z,50.875187
2023-04-16T03:38:41.358Z,50.875252
2023-04-16T03:39:41.348Z,50.875305
2023-04-16T03:40:41.343Z,50.875282
2023-04-16T03:41:41.335Z,50.875359
2023-04-16T03:42:41.346Z,50.875320
2023-04-16T03:43:41.325Z,50.875500
2023-04-16T03:44:41.303Z,50.875549
2023-04-16T03:45:41.301Z,50.875504
2023-04-16T03:46:41.346Z,50.875370
2023-04-16T03:47:41.322Z,50.875759
2023-04-16T03:48:41.273Z,50.875580
2023-04-16T03:49:41.251Z,50.875404
2023-04-16T03:50:41.236Z,50.875286
2023-04-16T03:51:41.232Z,50.875271
2023-04-16T03:52:41.239Z,50.875412
2023-04-16T03:53:41.213Z,50.875465
2023-04-16T03:54:41.203Z,50.875317
2023-04-16T03:55:41.193Z,50.875183
2023-04-16T03:56:41.183Z,50.875420
2023-04-16T03:57:41.186Z,50.875233
2023-04-16T03:58:41.170Z,50.875286
2023-04-16T03:59:41.151Z,50.875332
2023-04-16T04:00:41.159Z,50.875443
2023-04-16T04:01:41.157Z,50.875557
2023-04-16T04:02:41.285Z,50.875408
2023-04-16T04:03:41.343Z,50.875484
2023-04-16T04:04:41.284Z,50.875294
2023-04-16T04:05:41.131Z,50.874985
2023-04-16T04:06:41.085Z,50.875256
2023-04-16T04:07:41.118Z,50.875584
2023-04-16T04:08:42.068Z,50.875362
2023-04-16T04:09:41.057Z,50.875332
2023-04-16T04:10:41.066Z,50.875568
2023-04-16T04:11:41.028Z,50.875500
2023-04-16T04:12:41.035Z,50.875359
2023-04-16T04:13:41.027Z,50.875351
2023-04-16T04:14:40.999Z,50.875179
2023-04-16T04:15:41.017Z,50.875427
2023-04-16T04:16:41.190Z,50.875576
2023-04-16T04:17:41.077Z,50.879467
2023-04-16T04:18:41.726Z,50.888062
2023-04-16T04:19:47.091Z,50.893284
2023-04-16T04:20:42.972Z,50.875462
2023-04-16T04:21:40.952Z,50.875343
2023-04-16T04:22:40.952Z,50.875355
2023-04-16T04:23:40.924Z,50.875278
2023-04-16T04:24:40.913Z,50.875278
2023-04-16T04:25:40.903Z,50.875313
2023-04-16T04:26:40.916Z,50.875351
2023-04-16T04:27:40.887Z,50.875565
2023-04-16T04:28:40.885Z,50.875416
2023-04-16T04:29:40.901Z,50.875385
2023-04-16T04:30:40.847Z,50.875244
2023-04-16T04:31:40.901Z,50.875366
2023-04-16T04:32:40.929Z,50.875385
2023-04-16T04:33:40.822Z,50.875332
2023-04-16T04:34:40.822Z,50.875267
2023-04-16T04:35:40.800Z,50.875362
2023-04-16T04:36:40.798Z,50.875340
2023-04-16T04:37:40.788Z,50.875237
2023-04-16T04:38:40.765Z,50.875278
2023-04-16T04:39:40.761Z,50.875320
2023-04-16T04:40:40.745Z,50.875378
2023-04-16T04:41:40.746Z,50.875256
2023-04-16T04:42:40.748Z,50.875233
2023-04-16T04:43:40.729Z,50.875244
2023-04-16T04:44:40.705Z,50.875824
2023-04-16T04:45:40.724Z,50.875271
2023-04-16T04:46:40.709Z,50.875370
2023-04-16T04:47:40.728Z,50.875301
2023-04-16T04:48:40.661Z,50.875359
2023-04-16T04:49:40.657Z,50.875256
2023-04-16T04:50:40.650Z,50.875721
2023-04-16T04:51:40.643Z,50.875267
2023-04-16T04:52:40.622Z,50.875275
2023-04-16T04:53:40.606Z,50.875221
2023-04-16T04:54:40.607Z,50.875282
2023-04-16T04:55:40.607Z,50.875931
2023-04-16T04:56:40.597Z,50.876617
2023-04-16T04:57:40.578Z,50.877258
2023-04-16T04:58:40.581Z,50.877899
2023-04-16T04:59:40.562Z,50.879063
2023-04-16T05:00:40.553Z,50.880196
2023-04-16T05:01:40.605Z,50.881718
2023-04-16T05:02:40.601Z,50.883789
2023-04-16T05:03:40.623Z,50.886040
2023-04-16T05:04:40.555Z,50.876057
2023-04-16T05:05:40.497Z,50.875511
2023-04-16T05:06:40.499Z,50.875500
2023-04-16T05:07:40.483Z,50.875465
2023-04-16T05:08:40.477Z,50.875557
2023-04-16T05:09:40.463Z,50.875500
2023-04-16T05:10:40.451Z,50.875500
2023-04-16T05:11:40.445Z,50.875500
2023-04-16T05:12:40.451Z,50.875500
2023-04-16T05:13:40.427Z,50.875500
2023-04-16T05:14:40.443Z,50.875500
2023-04-16T05:15:40.409Z,50.875500
2023-04-16T05:16:40.412Z,50.875500
2023-04-16T05:17:40.400Z,50.875408
2023-04-16T05:18:40.380Z,50.875412
2023-04-16T05:19:40.360Z,50.875484
2023-04-16T05:20:40.366Z,50.875484
2023-04-16T05:21:40.355Z,50.875454
2023-04-16T05:22:40.338Z,50.875298
2023-04-16T05:23:40.326Z,50.875477
2023-04-16T05:24:40.324Z,50.875397
2023-04-16T05:25:40.305Z,50.875198
2023-04-16T05:26:40.293Z,50.875198
2023-04-16T05:27:40.296Z,50.875198
2023-04-16T05:28:40.271Z,50.875420
2023-04-16T05:29:40.273Z,50.875259
2023-04-16T05:30:40.385Z,50.875126
2023-04-16T05:31:40.246Z,50.875546
2023-04-16T05:32:40.268Z,50.875500
2023-04-16T05:33:40.230Z,50.875309
2023-04-16T05:34:40.214Z,50.875374
2023-04-16T05:35:40.207Z,50.875526
2023-04-16T05:36:40.194Z,50.875393
2023-04-16T05:37:40.206Z,50.875492
2023-04-16T05:38:40.174Z,50.875908
2023-04-16T05:39:40.163Z,50.875221
2023-04-16T05:40:40.160Z,50.875446
2023-04-16T05:41:40.148Z,50.875397
2023-04-16T05:42:40.147Z,50.875828
2023-04-16T05:43:40.126Z,50.875603
2023-04-16T05:44:40.114Z,50.875546
2023-04-16T05:45:40.106Z,50.875397
2023-04-16T05:46:40.110Z,50.875832
2023-04-16T05:47:40.110Z,50.875664
2023-04-16T05:48:40.087Z,50.875637
2023-04-16T05:49:40.062Z,50.876705
2023-04-16T05:50:40.065Z,50.878155
2023-04-16T05:51:40.049Z,50.879509
2023-04-16T05:52:40.061Z,50.881371
2023-04-16T05:53:40.031Z,50.883362
2023-04-16T05:54:40.031Z,50.883362
2023-04-16T05:55:40.011Z,50.883362
2023-04-16T05:56:40.010Z,50.883362
2023-04-16T05:57:40.002Z,50.883362
2023-04-16T05:58:39.980Z,50.883362
2023-04-16T05:59:39.974Z,50.883362
2023-04-16T06:00:39.959Z,50.883362
2023-04-16T06:01:39.948Z,50.883362
2023-04-16T06:02:40.060Z,50.883362
2023-04-16T06:03:40.010Z,50.883362
2023-04-16T06:04:39.923Z,50.883362
2023-04-16T06:05:39.965Z,50.883362
2023-04-16T06:06:39.900Z,50.883362
2023-04-16T06:07:39.908Z,50.883362
2023-04-16T06:08:39.879Z,50.883362
2023-04-16T06:09:39.872Z,50.883362
2023-04-16T06:10:39.865Z,50.883362
2023-04-16T06:11:39.853Z,50.883362
2023-04-16T06:12:39.862Z,50.883362
2023-04-16T06:13:39.859Z,50.883362
2023-04-16T06:14:39.843Z,50.883362
2023-04-16T06:15:39.830Z,50.883362
2023-04-16T06:16:39.808Z,50.883362
2023-04-16T06:17:39.926Z,50.883362
2023-04-16T06:18:39.789Z,50.883362
2023-04-16T06:19:39.779Z,50.883362
2023-04-16T06:20:39.764Z,50.883362
2023-04-16T06:21:39.771Z,50.883362
2023-04-16T06:22:39.768Z,50.883362
2023-04-16T06:23:39.740Z,50.883362
2023-04-16T06:24:39.814Z,50.883362
2023-04-16T06:25:39.728Z,50.883362
2023-04-16T06:26:39.924Z,50.883362
2023-04-16T06:27:39.718Z,50.883362
2023-04-16T06:28:39.681Z,50.883362
2023-04-16T06:29:41.458Z,50.883362
2023-04-16T06:30:41.421Z,50.883362
2023-04-16T06:31:39.678Z,50.883362
2023-04-16T06:32:40.289Z,50.883362
2023-04-16T06:33:39.661Z,50.883362
2023-04-16T06:34:39.745Z,50.883362
2023-04-16T06:35:41.816Z,50.883362
2023-04-16T06:36:41.253Z,50.883362
2023-04-16T06:37:39.622Z,50.883362
2023-04-16T06:38:39.589Z,50.883362
2023-04-16T06:39:39.579Z,50.883362
2023-04-16T06:40:42.225Z,50.883362
2023-04-16T06:41:39.548Z,50.883362
2023-04-16T06:42:41.445Z,50.883362
2023-04-16T06:43:39.543Z,50.883362
2023-04-16T06:44:39.525Z,50.883362
2023-04-16T06:45:39.520Z,50.883362
2023-04-16T06:46:39.558Z,50.883362
2023-04-16T06:47:39.574Z,50.883362
2023-04-16T06:48:39.504Z,50.883362
2023-04-16T06:49:39.478Z,50.883362
2023-04-16T06:50:39.468Z,50.883362
2023-04-16T06:51:39.453Z,50.883362
2023-04-16T06:52:39.445Z,50.883362
2023-04-16T06:53:39.441Z,50.883362
2023-04-16T06:54:39.422Z,50.883362
2023-04-16T06:55:39.651Z,50.883362
2023-04-16T06:56:40.405Z,50.883362
2023-04-16T06:57:39.400Z,50.883362
2023-04-16T06:58:39.394Z,50.883362
2023-04-16T06:59:39.377Z,50.883362
2023-04-16T07:00:39.395Z,50.883362
2023-04-16T07:01:39.357Z,50.883362
2023-04-16T07:02:39.499Z,50.883362
2023-04-16T07:03:39.512Z,50.883362
2023-04-16T07:04:41.884Z,50.883362
2023-04-16T07:05:39.321Z,50.883362
2023-04-16T07:06:39.305Z,50.883362
2023-04-16T07:07:39.293Z,50.883362
2023-04-16T07:08:39.910Z,50.883362
2023-04-16T07:09:39.275Z,50.883362
2023-04-16T07:10:39.258Z,50.883362
2023-04-16T07:11:40.075Z,50.883362
2023-04-16T07:12:42.737Z,50.883362
2023-04-16T07:13:41.036Z,50.883362
2023-04-16T07:14:39.212Z,50.883362
2023-04-16T07:15:42.857Z,50.883362
2023-04-16T07:16:39.203Z,50.883362
2023-04-16T07:17:39.900Z,50.883362
2023-04-16T07:18:39.189Z,50.883362
2023-04-16T07:19:39.172Z,50.883362
2023-04-16T07:20:40.357Z,50.883362
2023-04-16T07:21:39.149Z,50.883362
2023-04-16T07:22:39.143Z,50.883362
2023-04-16T07:23:39.152Z,50.883362
2023-04-16T07:24:39.121Z,50.883362
2023-04-16T07:25:39.357Z,50.883362
2023-04-16T07:26:39.135Z,50.883362
2023-04-16T07:27:39.102Z,50.883362
2023-04-16T07:28:39.140Z,50.883362
2023-04-16T07:29:39.073Z,50.883362
2023-04-16T07:30:39.071Z,50.883362
2023-04-16T07:31:39.053Z,50.883362
2023-04-16T07:32:39.091Z,50.883362
2023-04-16T07:33:39.038Z,50.883362
2023-04-16T07:34:39.016Z,50.883362
2023-04-16T07:35:39.018Z,50.883362
2023-04-16T07:36:38.993Z,50.883362
2023-04-16T07:37:38.985Z,50.883362
2023-04-16T07:38:38.982Z,50.883362
2023-04-16T07:39:38.966Z,50.883362
2023-04-16T07:40:38.958Z,50.883362
2023-04-16T07:41:38.946Z,50.883362
2023-04-16T07:42:38.933Z,50.883362
2023-04-16T07:43:38.930Z,50.883362
2023-04-16T07:44:38.902Z,50.883362
2023-04-16T07:45:41.348Z,50.883362
2023-04-16T07:46:46.834Z,50.883362
2023-04-16T07:47:40.920Z,50.883362
2023-04-16T07:48:38.886Z,50.883362
2023-04-16T07:49:38.860Z,50.883362
2023-04-16T07:50:38.862Z,50.883362
2023-04-16T07:51:38.847Z,50.883362
2023-04-16T07:52:38.842Z,50.883362
2023-04-16T07:53:38.845Z,50.883362
2023-04-16T07:54:38.827Z,50.883362
2023-04-16T07:55:38.796Z,50.883362
2023-04-16T07:56:38.799Z,50.883362
2023-04-16T07:57:38.780Z,50.883362
2023-04-16T07:58:38.777Z,50.883362
2023-04-16T07:59:38.756Z,50.883362
2023-04-16T08:00:38.770Z,50.883362
2023-04-16T08:01:38.739Z,50.883362
2023-04-16T08:02:38.845Z,50.883362
2023-04-16T08:03:38.872Z,50.883362
2023-04-16T08:04:38.975Z,50.883362
2023-04-16T08:05:38.705Z,50.883362
2023-04-16T08:06:38.691Z,50.883362
2023-04-16T08:07:38.684Z,50.883362
2023-04-16T08:08:38.692Z,50.883362
2023-04-16T08:09:38.670Z,50.883362
2023-04-16T08:10:38.652Z,50.883362
2023-04-16T08:11:38.644Z,50.883362
2023-04-16T08:12:38.632Z,50.883362
2023-04-16T08:13:38.618Z,50.883362
2023-04-16T08:14:38.622Z,50.883362
2023-04-16T08:15:38.660Z,50.883362
2023-04-16T08:16:38.589Z,50.883362
2023-04-16T08:17:38.617Z,50.883362
2023-04-16T08:18:38.593Z,50.883362
2023-04-16T08:19:38.578Z,50.883362
2023-04-16T08:20:38.567Z,50.883362
2023-04-16T08:21:38.548Z,50.883362
2023-04-16T08:22:38.532Z,50.883362
2023-04-16T08:23:38.525Z,50.883362
2023-04-16T08:24:38.531Z,50.883362
2023-04-16T08:25:38.563Z,50.883362
2023-04-16T08:26:38.501Z,50.883362
2023-04-16T08:27:38.490Z,50.883362
2023-04-16T08:28:38.498Z,50.883362
2023-04-16T08:29:38.469Z,50.883362
2023-04-16T08:30:38.448Z,50.883362
2023-04-16T08:31:38.480Z,50.883362
2023-04-16T08:32:38.516Z,50.883362
2023-04-16T08:33:38.421Z,50.883362
2023-04-16T08:34:38.422Z,50.883362
2023-04-16T08:35:38.398Z,50.883362
2023-04-16T08:36:38.381Z,50.883362
2023-04-16T08:37:38.374Z,50.883362
2023-04-16T08:38:38.378Z,50.883362
2023-04-16T08:39:38.364Z,50.883362
2023-04-16T08:40:38.346Z,50.883362
2023-04-16T08:41:38.339Z,50.883362
2023-04-16T08:42:38.325Z,50.883362
2023-04-16T08:43:38.321Z,50.883362
2023-04-16T08:44:38.324Z,50.883362
2023-04-16T08:45:38.300Z,50.883362
2023-04-16T08:46:38.350Z,50.883362
2023-04-16T08:47:38.330Z,50.883362
2023-04-16T08:48:38.262Z,50.883362
2023-04-16T08:49:38.259Z,50.883362
2023-04-16T08:50:38.240Z,50.883362
2023-04-16T08:51:38.226Z,50.883362
2023-04-16T08:52:38.223Z,50.883362
2023-04-16T08:53:38.214Z,50.883362
2023-04-16T08:54:38.208Z,50.883362
2023-04-16T08:55:38.187Z,50.883362
2023-04-16T08:56:38.180Z,50.883362
2023-04-16T08:57:38.166Z,50.883362
2023-04-16T08:58:38.162Z,50.883362
2023-04-16T08:59:38.182Z,50.883362
2023-04-16T09:00:38.148Z,50.883362
2023-04-16T09:01:38.209Z,50.883362
2023-04-16T09:02:38.360Z,50.883362
2023-04-16T09:03:38.307Z,50.883362
2023-04-16T09:04:38.260Z,50.883362
2023-04-16T09:05:38.088Z,50.883362
2023-04-16T09:06:38.073Z,50.883362
2023-04-16T09:07:38.068Z,50.883362
2023-04-16T09:08:38.059Z,50.883362
2023-04-16T09:09:38.059Z,50.883362
2023-04-16T09:10:38.033Z,50.883362
2023-04-16T09:11:38.028Z,50.883362
2023-04-16T09:12:38.016Z,50.883362
2023-04-16T09:13:38.004Z,50.883362
2023-04-16T09:14:38.009Z,50.883362
2023-04-16T09:15:37.981Z,50.883362
2023-04-16T09:16:38.056Z,50.883362
2023-04-16T09:17:38.002Z,50.883362
2023-04-16T09:18:37.958Z,50.883362
2023-04-16T09:19:37.969Z,50.883362
2023-04-16T09:20:37.936Z,50.883362
2023-04-16T09:21:37.917Z,50.883362
2023-04-16T09:22:37.914Z,50.883362
2023-04-16T09:23:37.901Z,50.883362
2023-04-16T09:24:37.905Z,50.883362
2023-04-16T09:25:37.877Z,50.883362
2023-04-16T09:26:37.865Z,50.883362
2023-04-16T09:27:37.858Z,50.883362
2023-04-16T09:28:37.842Z,50.883362
2023-04-16T09:29:37.854Z,50.883362
2023-04-16T09:30:37.829Z,50.883362
2023-04-16T09:31:37.936Z,50.883362
2023-04-16T09:32:37.861Z,50.883362
2023-04-16T09:33:37.796Z,50.883362
2023-04-16T09:34:37.806Z,50.883362
2023-04-16T09:35:37.832Z,50.883362
2023-04-16T09:36:37.769Z,50.883362
2023-04-16T09:37:37.753Z,50.883362
2023-04-16T09:38:37.747Z,50.883362
2023-04-16T09:39:37.738Z,50.883362
2023-04-16T09:40:37.742Z,50.883362
2023-04-16T09:41:37.714Z,50.883362
2023-04-16T09:42:37.710Z,50.883362
2023-04-16T09:43:37.689Z,50.883362
2023-04-16T09:44:37.689Z,50.883362
2023-04-16T09:45:37.700Z,50.883362
2023-04-16T09:46:37.656Z,50.883362
2023-04-16T09:47:37.702Z,50.883362
2023-04-16T09:48:37.641Z,50.883362
2023-04-16T09:49:37.625Z,50.883362
2023-04-16T09:50:37.643Z,50.883362
2023-04-16T09:51:37.623Z,50.883362
2023-04-16T09:52:37.605Z,50.883362
2023-04-16T09:53:37.592Z,50.883362
2023-04-16T09:54:37.578Z,50.883362
2023-04-16T09:55:37.590Z,50.883362
2023-04-16T09:56:37.559Z,50.883362
2023-04-16T09:57:37.545Z,50.883362
2023-04-16T09:58:37.536Z,50.883362
2023-04-16T09:59:37.528Z,50.883362
2023-04-16T10:00:42.330Z,50.883362
2023-04-16T10:01:38.533Z,50.883362
2023-04-16T10:02:37.566Z,50.883362
2023-04-16T10:03:37.597Z,50.883362
2023-04-16T10:04:37.536Z,50.883362
2023-04-16T10:05:37.508Z,50.883362
2023-04-16T10:06:37.466Z,50.883362
2023-04-16T10:07:37.452Z,50.883362
2023-04-16T10:08:37.439Z,50.883362
2023-04-16T10:09:37.432Z,50.883362
2023-04-16T10:10:37.483Z,50.883362
2023-04-16T10:11:37.413Z,50.883362
2023-04-16T10:12:37.400Z,50.883362
2023-04-16T10:13:37.391Z,50.883362
2023-04-16T10:14:37.383Z,50.883362
2023-04-16T10:15:37.376Z,50.883362
2023-04-16T10:16:37.407Z,50.883362
2023-04-16T10:17:37.385Z,50.883362
2023-04-16T10:18:37.344Z,50.883362
2023-04-16T10:19:37.334Z,50.883362
2023-04-16T10:20:37.327Z,50.883362
2023-04-16T10:21:37.317Z,50.883362
2023-04-16T10:22:37.299Z,50.883362
2023-04-16T10:23:37.908Z,50.883362
2023-04-16T10:24:38.278Z,50.883362
2023-04-16T10:25:37.288Z,50.883362
2023-04-16T10:26:37.256Z,50.883362
2023-04-16T10:27:37.285Z,50.883362
2023-04-16T10:28:37.232Z,50.883362
2023-04-16T10:29:37.226Z,50.883362
2023-04-16T10:30:37.258Z,50.883362
2023-04-16T10:31:37.205Z,50.883362
2023-04-16T10:32:37.234Z,50.883362
2023-04-16T10:33:37.178Z,50.883362
2023-04-16T10:34:37.182Z,50.883362
2023-04-16T10:35:37.175Z,50.883362
2023-04-16T10:36:37.151Z,50.883362
2023-04-16T10:37:37.142Z,50.883362
2023-04-16T10:38:37.153Z,50.875473
2023-04-16T10:39:37.122Z,50.875389
2023-04-16T10:40:37.122Z,50.875401
2023-04-16T10:41:37.104Z,50.875519
2023-04-16T10:42:37.086Z,50.875427
2023-04-16T10:43:37.091Z,50.875359
2023-04-16T10:44:37.070Z,50.875336
2023-04-16T10:45:37.072Z,50.875427
2023-04-16T10:46:37.095Z,50.875481
2023-04-16T10:47:37.058Z,50.875526
2023-04-16T10:48:48.811Z,50.875324
2023-04-16T10:49:39.027Z,50.875355
2023-04-16T10:50:37.192Z,50.875206
2023-04-16T10:51:37.006Z,50.875385
2023-04-16T10:52:36.994Z,50.875229
2023-04-16T10:53:37.006Z,50.875355
2023-04-16T10:54:36.972Z,50.875370
2023-04-16T10:55:36.976Z,50.873672
2023-04-16T10:56:36.953Z,50.873173
2023-04-16T10:57:36.942Z,50.875969
2023-04-16T10:58:36.933Z,50.875439
2023-04-16T10:59:36.933Z,50.875378
2023-04-16T11:00:36.917Z,50.875389
2023-04-16T11:01:36.962Z,50.875340
2023-04-16T11:02:37.004Z,50.875317
2023-04-16T11:03:37.056Z,50.875492
2023-04-16T11:04:36.986Z,50.875465
2023-04-16T11:05:36.866Z,50.875446
2023-04-16T11:06:36.881Z,50.875259
2023-04-16T11:07:36.845Z,50.875389
2023-04-16T11:08:47.530Z,50.875538
2023-04-16T11:09:39.929Z,50.875679
2023-04-16T11:10:36.852Z,50.875687
2023-04-16T11:11:36.843Z,50.875782
2023-04-16T11:12:36.860Z,50.876469
2023-04-16T11:13:36.810Z,50.875416
2023-04-16T11:14:36.780Z,50.875191
2023-04-16T11:15:36.795Z,50.875504
2023-04-16T11:16:36.765Z,50.875343
2023-04-16T11:17:36.770Z,50.875462
2023-04-16T11:18:36.749Z,50.875580
2023-04-16T11:19:36.750Z,50.875271
2023-04-16T11:20:36.730Z,50.875381
2023-04-16T11:21:36.715Z,50.875343
2023-04-16T11:22:36.702Z,50.875500
2023-04-16T11:23:36.794Z,50.875416
2023-04-16T11:24:36.933Z,50.875393
2023-04-16T11:25:37.536Z,50.875435
2023-04-16T11:26:36.712Z,50.875450
2023-04-16T11:27:36.655Z,50.875523
2023-04-16T11:28:36.663Z,50.875435
2023-04-16T11:29:36.628Z,50.875462
2023-04-16T11:30:37.440Z,50.875439
2023-04-16T11:31:36.678Z,50.875420
2023-04-16T11:32:36.630Z,50.875431
2023-04-16T11:33:36.593Z,50.875450
2023-04-16T11:34:46.031Z,50.875408
2023-04-16T11:35:54.542Z,50.875454
2023-04-16T11:36:36.599Z,50.875458
2023-04-16T11:37:36.628Z,50.875271
2023-04-16T11:38:36.574Z,50.875214
2023-04-16T11:39:36.571Z,50.875278
2023-04-16T11:40:36.562Z,50.875237
2023-04-16T11:41:36.528Z,50.875496
2023-04-16T11:42:36.559Z,50.875237
2023-04-16T11:43:36.520Z,50.875381
2023-04-16T11:44:36.502Z,50.875477
2023-04-16T11:45:36.500Z,50.875355
2023-04-16T11:46:36.514Z,50.875412
2023-04-16T11:47:36.479Z,50.875393
2023-04-16T11:48:36.451Z,50.875633
2023-04-16T11:49:36.447Z,50.875378
2023-04-16T11:50:36.445Z,50.875320
2023-04-16T11:51:36.448Z,50.875351
2023-04-16T11:52:36.462Z,50.875347
2023-04-16T11:53:36.418Z,50.875336
2023-04-16T11:54:36.439Z,50.875229
2023-04-16T11:55:36.402Z,50.875343
2023-04-16T11:56:36.407Z,50.875351
2023-04-16T11:57:36.393Z,50.875446
2023-04-16T11:58:36.385Z,50.875443
2023-04-16T11:59:37.357Z,50.875298
2023-04-16T12:00:37.376Z,50.875282
2023-04-16T12:01:36.365Z,50.875237
2023-04-16T12:02:36.471Z,50.875401
2023-04-16T12:03:36.716Z,50.875385
2023-04-16T12:04:36.504Z,50.875282
2023-04-16T12:05:36.326Z,50.875221
2023-04-16T12:06:36.287Z,50.875290
2023-04-16T12:07:36.293Z,50.875290
2023-04-16T12:08:36.278Z,50.875401
2023-04-16T12:09:39.350Z,50.875469
2023-04-16T12:10:36.276Z,50.875401
2023-04-16T12:11:36.254Z,50.875393
2023-04-16T12:12:36.256Z,50.875431
2023-04-16T12:13:36.227Z,50.875393
2023-04-16T12:14:36.216Z,50.875374
2023-04-16T12:15:36.305Z,50.875355
2023-04-16T12:16:36.222Z,50.875423
2023-04-16T12:17:36.234Z,50.875286
2023-04-16T12:18:36.188Z,50.875332
2023-04-16T12:19:36.196Z,50.875427
2023-04-16T12:20:36.189Z,50.875507
2023-04-16T12:21:36.158Z,50.875431
2023-04-16T12:22:36.984Z,50.875351
2023-04-16T12:23:37.140Z,50.875229
2023-04-16T12:24:36.983Z,50.875164
2023-04-16T12:25:36.130Z,50.875401
2023-04-16T12:26:36.094Z,50.874912
2023-04-16T12:27:36.163Z,50.875183
2023-04-16T12:28:36.115Z,50.875069
2023-04-16T12:29:36.064Z,50.875309
2023-04-16T12:30:36.125Z,50.875328
2023-04-16T12:31:36.059Z,50.875332
2023-04-16T12:32:36.267Z,50.875374
2023-04-16T12:33:36.071Z,50.875298
2023-04-16T12:34:48.702Z,50.875309
2023-04-16T12:35:37.057Z,50.875362
2023-04-16T12:36:36.070Z,50.875271
2023-04-16T12:37:36.028Z,50.875347
2023-04-16T12:38:36.016Z,50.875233
2023-04-16T12:39:36.008Z,50.875187
2023-04-16T12:40:35.991Z,50.875198
2023-04-16T12:41:36.021Z,50.875271
2023-04-16T12:42:36.018Z,50.875393
2023-04-16T12:43:35.978Z,50.875286
2023-04-16T12:44:36.018Z,50.875164
2023-04-16T12:45:35.951Z,50.875233
2023-04-16T12:46:35.997Z,50.875221
2023-04-16T12:47:36.027Z,50.875580
2023-04-16T12:48:35.988Z,50.875580
2023-04-16T12:49:35.967Z,50.875580
2023-04-16T12:50:35.943Z,50.875580
2023-04-16T12:51:35.916Z,50.875580
2023-04-16T12:52:35.914Z,50.875580
2023-04-16T12:53:35.894Z,50.875580
2023-04-16T12:54:35.886Z,50.875580
2023-04-16T12:55:35.876Z,50.875580
2023-04-16T12:56:35.888Z,50.875580
2023-04-16T12:57:35.861Z,50.875580
2023-04-16T12:58:35.841Z,50.875580
2023-04-16T12:59:35.808Z,50.875580
2023-04-16T13:00:35.800Z,50.875580
2023-04-16T13:01:35.847Z,50.875580
2023-04-16T13:02:35.826Z,50.875580
2023-04-16T13:03:35.937Z,50.875252
2023-04-16T13:04:35.810Z,50.875378
2023-04-16T13:05:35.732Z,50.875195
2023-04-16T13:06:35.750Z,50.875317
2023-04-16T13:07:35.703Z,50.875320
2023-04-16T13:08:35.692Z,50.875324
2023-04-16T13:09:37.723Z,50.875530
2023-04-16T13:10:35.675Z,50.875488
2023-04-16T13:11:35.665Z,50.875397
2023-04-16T13:12:35.650Z,50.875389
2023-04-16T13:13:35.641Z,50.875397
2023-04-16T13:14:35.634Z,50.875427
2023-04-16T13:15:35.624Z,50.875404
2023-04-16T13:16:35.625Z,50.875359
2023-04-16T13:17:35.640Z,50.875370
2023-04-16T13:18:35.592Z,50.875420
2023-04-16T13:19:35.578Z,50.875362
2023-04-16T13:20:35.571Z,50.875530
2023-04-16T13:21:35.572Z,50.875729
2023-04-16T13:22:35.572Z,50.875546
2023-04-16T13:23:35.548Z,50.875435
2023-04-16T13:24:35.538Z,50.875313
2023-04-16T13:25:35.533Z,50.874802
2023-04-16T13:26:35.509Z,50.875137
2023-04-16T13:27:35.509Z,50.875210
2023-04-16T13:28:35.492Z,50.875313
2023-04-16T13:29:35.481Z,50.875267
2023-04-16T13:30:35.491Z,50.875328
2023-04-16T13:31:35.483Z,50.875546
2023-04-16T13:32:35.485Z,50.875450
2023-04-16T13:33:35.448Z,50.875473
2023-04-16T13:34:35.441Z,50.875389
2023-04-16T13:35:35.422Z,50.875389
2023-04-16T13:36:35.433Z,50.875332
2023-04-16T13:37:35.397Z,50.875214
2023-04-16T13:38:35.395Z,50.875214
2023-04-16T13:39:35.383Z,50.875355
2023-04-16T13:40:35.370Z,50.875202
2023-04-16T13:41:35.378Z,50.875145
2023-04-16T13:42:35.360Z,50.875374
2023-04-16T13:43:35.366Z,50.875431
2023-04-16T13:44:35.332Z,50.875675
2023-04-16T13:45:36.322Z,50.875904
2023-04-16T13:46:35.370Z,50.875427
2023-04-16T13:47:35.334Z,50.875534
2023-04-16T13:48:35.299Z,50.875439
2023-04-16T13:49:35.905Z,50.875393
2023-04-16T13:50:36.280Z,50.875351
2023-04-16T13:51:35.285Z,50.875381
2023-04-16T13:52:35.258Z,50.875538
2023-04-16T13:53:35.254Z,50.875607
2023-04-16T13:54:35.237Z,50.875401